sensor_id;sensor_type;location;lat;lon;timestamp;temperature;humidity
9219;DHT22;4644;48.858;9.184;2023-08-01T00:00:46;17.80;99.90
9219;DHT22;4644;48.858;9.184;2023-08-01T00:03:13;17.80;99.90
9219;DHT22;4644;48.858;9.184;2023-08-01T00:05:40;17.80;99.90
9219;DHT22;4644;48.858;9.184;2023-08-01T00:08:10;17.70;99.90
9219;DHT22;4644;48.858;9.184;2023-08-01T00:10:38;17.70;99.90
9219;DHT22;4644;48.858;9.184;2023-08-01T00:13:06;17.70;99.90
9219;DHT22;4644;48.858;9.184;2023-08-01T00:15:33;17.70;99.90
9219;DHT22;4644;48.858;9.184;2023-08-01T00:18:00;17.60;99.90
9219;DHT22;4644;48.858;9.184;2023-08-01T00:20:27;17.60;99.90
9219;DHT22;4644;48.858;9.184;2023-08-01T00:22:54;17.50;99.90
9219;DHT22;4644;48.858;9.184;2023-08-01T00:25:21;17.50;99.90
9219;DHT22;4644;48.858;9.184;2023-08-01T00:27:48;17.50;99.90
9219;DHT22;4644;48.858;9.184;2023-08-01T00:30:16;17.40;99.90
9219;DHT22;4644;48.858;9.184;2023-08-01T00:32:43;17.40;99.90
9219;DHT22;4644;48.858;9.184;2023-08-01T00:35:10;17.40;99.90
9219;DHT22;4644;48.858;9.184;2023-08-01T00:37:37;17.30;99.90
9219;DHT22;4644;48.858;9.184;2023-08-01T00:40:04;17.30;99.90
9219;DHT22;4644;48.858;9.184;2023-08-01T00:42:31;17.40;99.90
9219;DHT22;4644;48.858;9.184;2023-08-01T00:44:58;17.30;99.90
9219;DHT22;4644;48.858;9.184;2023-08-01T00:47:27;17.30;99.90
9219;DHT22;4644;48.858;9.184;2023-08-01T00:49:54;17.40;99.90
9219;DHT22;4644;48.858;9.184;2023-08-01T00:52:21;17.40;99.90
9219;DHT22;4644;48.858;9.184;2023-08-01T00:54:48;17.40;99.90
9219;DHT22;4644;48.858;9.184;2023-08-01T00:57:15;17.50;99.90
9219;DHT22;4644;48.858;9.184;2023-08-01T00:59:41;17.50;99.90
9219;DHT22;4644;48.858;9.184;2023-08-01T01:02:08;17.40;99.90
9219;DHT22;4644;48.858;9.184;2023-08-01T01:04:38;17.50;99.90
9219;DHT22;4644;48.858;9.184;2023-08-01T01:07:06;17.40;99.90
9219;DHT22;4644;48.858;9.184;2023-08-01T01:09:33;17.40;99.90
9219;DHT22;4644;48.858;9.184;2023-08-01T01:12:00;17.50;99.90
9219;DHT22;4644;48.858;9.184;2023-08-01T01:14:27;17.50;99.90
9219;DHT22;4644;48.858;9.184;2023-08-01T01:16:54;17.50;99.90
9219;DHT22;4644;48.858;9.184;2023-08-01T01:19:21;17.50;99.90
9219;DHT22;4644;48.858;9.184;2023-08-01T01:24:44;17.50;99.90
9219;DHT22;4644;48.858;9.184;2023-08-01T01:27:11;17.50;99.90
9219;DHT22;4644;48.858;9.184;2023-08-01T01:29:39;17.50;99.90
9219;DHT22;4644;48.858;9.184;2023-08-01T01:32:06;17.40;99.90
9219;DHT22;4644;48.858;9.184;2023-08-01T01:34:34;17.40;99.90
9219;DHT22;4644;48.858;9.184;2023-08-01T01:37:01;17.30;99.90
9219;DHT22;4644;48.858;9.184;2023-08-01T01:39:28;17.20;99.90
9219;DHT22;4644;48.858;9.184;2023-08-01T01:41:57;17.20;99.90
9219;DHT22;4644;48.858;9.184;2023-08-01T01:44:24;17.10;99.90
9219;DHT22;4644;48.858;9.184;2023-08-01T01:46:51;16.90;99.90
9219;DHT22;4644;48.858;9.184;2023-08-01T01:49:18;16.80;99.90
9219;DHT22;4644;48.858;9.184;2023-08-01T01:51:44;16.80;99.90
9219;DHT22;4644;48.858;9.184;2023-08-01T01:54:11;16.70;99.90
9219;DHT22;4644;48.858;9.184;2023-08-01T01:56:42;16.60;99.90
9219;DHT22;4644;48.858;9.184;2023-08-01T01:59:10;16.50;99.90
9219;DHT22;4644;48.858;9.184;2023-08-01T02:01:37;16.50;99.90
9219;DHT22;4644;48.858;9.184;2023-08-01T02:04:04;16.40;99.90
9219;DHT22;4644;48.858;9.184;2023-08-01T02:06:31;16.40;99.90
9219;DHT22;4644;48.858;9.184;2023-08-01T02:08:58;16.40;99.90
9219;DHT22;4644;48.858;9.184;2023-08-01T02:11:25;16.50;99.90
9219;DHT22;4644;48.858;9.184;2023-08-01T02:13:51;16.40;99.90
9219;DHT22;4644;48.858;9.184;2023-08-01T02:16:21;16.40;99.90
9219;DHT22;4644;48.858;9.184;2023-08-01T02:18:47;16.40;99.90
9219;DHT22;4644;48.858;9.184;2023-08-01T02:21:14;16.40;99.90
9219;DHT22;4644;48.858;9.184;2023-08-01T02:23:41;16.50;99.90
9219;DHT22;4644;48.858;9.184;2023-08-01T02:26:08;16.50;99.90
9219;DHT22;4644;48.858;9.184;2023-08-01T02:28:35;16.50;99.90
9219;DHT22;4644;48.858;9.184;2023-08-01T02:31:02;16.60;99.90
9219;DHT22;4644;48.858;9.184;2023-08-01T02:33:30;16.60;99.90
9219;DHT22;4644;48.858;9.184;2023-08-01T02:35:57;16.60;99.90
9219;DHT22;4644;48.858;9.184;2023-08-01T02:38:24;16.60;99.90
9219;DHT22;4644;48.858;9.184;2023-08-01T02:40:51;16.60;99.90
9219;DHT22;4644;48.858;9.184;2023-08-01T02:43:17;16.60;99.90
9219;DHT22;4644;48.858;9.184;2023-08-01T02:45:44;16.60;99.90
9219;DHT22;4644;48.858;9.184;2023-08-01T02:48:12;16.60;99.90
9219;DHT22;4644;48.858;9.184;2023-08-01T02:50:40;16.60;99.90
9219;DHT22;4644;48.858;9.184;2023-08-01T02:53:07;16.50;99.90
9219;DHT22;4644;48.858;9.184;2023-08-01T02:55:34;16.60;99.90
9219;DHT22;4644;48.858;9.184;2023-08-01T02:58:00;16.60;99.90
9219;DHT22;4644;48.858;9.184;2023-08-01T03:00:27;16.60;99.90
9219;DHT22;4644;48.858;9.184;2023-08-01T03:02:54;16.60;99.90
9219;DHT22;4644;48.858;9.184;2023-08-01T03:05:22;16.60;99.90
9219;DHT22;4644;48.858;9.184;2023-08-01T03:07:50;16.60;99.90
9219;DHT22;4644;48.858;9.184;2023-08-01T03:10:17;16.60;99.90
9219;DHT22;4644;48.858;9.184;2023-08-01T03:12:44;16.60;99.90
9219;DHT22;4644;48.858;9.184;2023-08-01T03:15:11;16.60;99.90
9219;DHT22;4644;48.858;9.184;2023-08-01T03:17:38;16.60;99.90
9219;DHT22;4644;48.858;9.184;2023-08-01T03:20:05;16.60;99.90
9219;DHT22;4644;48.858;9.184;2023-08-01T03:22:37;16.50;99.90
9219;DHT22;4644;48.858;9.184;2023-08-01T03:25:06;16.50;99.90
9219;DHT22;4644;48.858;9.184;2023-08-01T03:27:33;16.60;99.90
9219;DHT22;4644;48.858;9.184;2023-08-01T03:30:00;16.50;99.90
9219;DHT22;4644;48.858;9.184;2023-08-01T03:32:27;16.50;99.90
9219;DHT22;4644;48.858;9.184;2023-08-01T03:34:54;16.50;99.90
9219;DHT22;4644;48.858;9.184;2023-08-01T03:37:20;16.50;99.90
9219;DHT22;4644;48.858;9.184;2023-08-01T03:39:47;16.50;99.90
9219;DHT22;4644;48.858;9.184;2023-08-01T03:42:16;16.50;99.90
9219;DHT22;4644;48.858;9.184;2023-08-01T03:44:42;16.50;99.90
9219;DHT22;4644;48.858;9.184;2023-08-01T03:47:09;16.50;99.90
9219;DHT22;4644;48.858;9.184;2023-08-01T03:49:36;16.50;99.90
9219;DHT22;4644;48.858;9.184;2023-08-01T03:52:05;16.50;99.90
9219;DHT22;4644;48.858;9.184;2023-08-01T03:54:32;16.50;99.90
9219;DHT22;4644;48.858;9.184;2023-08-01T03:56:59;16.50;99.90
9219;DHT22;4644;48.858;9.184;2023-08-01T03:59:27;16.50;99.90
9219;DHT22;4644;48.858;9.184;2023-08-01T04:01:54;16.50;99.90
9219;DHT22;4644;48.858;9.184;2023-08-01T04:04:21;16.50;99.90
9219;DHT22;4644;48.858;9.184;2023-08-01T04:06:48;16.50;99.90
9219;DHT22;4644;48.858;9.184;2023-08-01T04:09:16;16.60;99.90
9219;DHT22;4644;48.858;9.184;2023-08-01T04:11:43;16.60;99.90
9219;DHT22;4644;48.858;9.184;2023-08-01T04:14:10;16.60;99.90
9219;DHT22;4644;48.858;9.184;2023-08-01T04:16:38;16.70;99.90
9219;DHT22;4644;48.858;9.184;2023-08-01T04:19:06;16.80;99.90
9219;DHT22;4644;48.858;9.184;2023-08-01T04:21:33;16.80;99.90
9219;DHT22;4644;48.858;9.184;2023-08-01T04:24:00;16.80;99.90
9219;DHT22;4644;48.858;9.184;2023-08-01T04:26:27;16.80;99.90
9219;DHT22;4644;48.858;9.184;2023-08-01T04:28:54;16.90;99.90
9219;DHT22;4644;48.858;9.184;2023-08-01T04:31:21;16.90;99.90
9219;DHT22;4644;48.858;9.184;2023-08-01T04:33:49;17.00;99.90
9219;DHT22;4644;48.858;9.184;2023-08-01T04:36:16;17.10;99.90
9219;DHT22;4644;48.858;9.184;2023-08-01T04:38:43;17.20;99.90
9219;DHT22;4644;48.858;9.184;2023-08-01T04:41:11;17.30;99.90
9219;DHT22;4644;48.858;9.184;2023-08-01T04:43:38;17.40;99.90
9219;DHT22;4644;48.858;9.184;2023-08-01T04:46:05;17.40;99.90
9219;DHT22;4644;48.858;9.184;2023-08-01T04:48:32;17.50;99.90
9219;DHT22;4644;48.858;9.184;2023-08-01T04:51:00;17.60;99.90
9219;DHT22;4644;48.858;9.184;2023-08-01T04:53:28;17.60;99.90
9219;DHT22;4644;48.858;9.184;2023-08-01T04:55:55;17.50;99.90
9219;DHT22;4644;48.858;9.184;2023-08-01T04:58:22;17.50;99.90
9219;DHT22;4644;48.858;9.184;2023-08-01T05:00:50;17.60;99.90
9219;DHT22;4644;48.858;9.184;2023-08-01T05:03:17;17.60;99.90
9219;DHT22;4644;48.858;9.184;2023-08-01T05:05:44;17.60;99.90
9219;DHT22;4644;48.858;9.184;2023-08-01T05:08:12;17.70;99.90
9219;DHT22;4644;48.858;9.184;2023-08-01T05:10:40;17.70;99.90
9219;DHT22;4644;48.858;9.184;2023-08-01T05:13:07;17.70;99.90
9219;DHT22;4644;48.858;9.184;2023-08-01T05:15:34;17.70;99.90
9219;DHT22;4644;48.858;9.184;2023-08-01T05:18:01;17.70;99.90
9219;DHT22;4644;48.858;9.184;2023-08-01T05:20:28;17.70;99.90
9219;DHT22;4644;48.858;9.184;2023-08-01T05:22:56;17.60;99.90
9219;DHT22;4644;48.858;9.184;2023-08-01T05:25:25;17.70;99.90
9219;DHT22;4644;48.858;9.184;2023-08-01T05:27:52;17.70;99.90
9219;DHT22;4644;48.858;9.184;2023-08-01T05:30:19;17.70;99.90
9219;DHT22;4644;48.858;9.184;2023-08-01T05:32:46;17.60;99.90
9219;DHT22;4644;48.858;9.184;2023-08-01T05:35:14;17.60;99.90
9219;DHT22;4644;48.858;9.184;2023-08-01T05:37:41;17.60;99.90
9219;DHT22;4644;48.858;9.184;2023-08-01T05:40:09;17.60;99.90
9219;DHT22;4644;48.858;9.184;2023-08-01T05:42:39;17.60;99.90
9219;DHT22;4644;48.858;9.184;2023-08-01T05:45:08;17.60;99.90
9219;DHT22;4644;48.858;9.184;2023-08-01T05:47:37;17.60;99.90
9219;DHT22;4644;48.858;9.184;2023-08-01T05:50:06;17.70;99.90
9219;DHT22;4644;48.858;9.184;2023-08-01T05:52:33;17.70;99.90
9219;DHT22;4644;48.858;9.184;2023-08-01T05:55:00;17.80;99.90
9219;DHT22;4644;48.858;9.184;2023-08-01T05:57:27;17.80;99.90
9219;DHT22;4644;48.858;9.184;2023-08-01T05:59:57;17.80;99.90
9219;DHT22;4644;48.858;9.184;2023-08-01T06:02:24;17.80;99.90
9219;DHT22;4644;48.858;9.184;2023-08-01T06:04:51;17.80;99.90
9219;DHT22;4644;48.858;9.184;2023-08-01T06:07:18;17.80;99.90
9219;DHT22;4644;48.858;9.184;2023-08-01T06:09:48;17.90;99.90
9219;DHT22;4644;48.858;9.184;2023-08-01T06:12:17;17.90;99.90
9219;DHT22;4644;48.858;9.184;2023-08-01T06:14:44;17.90;99.90
9219;DHT22;4644;48.858;9.184;2023-08-01T06:17:13;18.10;99.90
9219;DHT22;4644;48.858;9.184;2023-08-01T06:19:40;18.10;99.90
9219;DHT22;4644;48.858;9.184;2023-08-01T06:22:07;18.10;99.90
9219;DHT22;4644;48.858;9.184;2023-08-01T06:24:34;18.10;99.90
9219;DHT22;4644;48.858;9.184;2023-08-01T06:27:01;18.10;99.90
9219;DHT22;4644;48.858;9.184;2023-08-01T06:29:28;18.20;99.90
9219;DHT22;4644;48.858;9.184;2023-08-01T06:31:55;18.10;99.90
9219;DHT22;4644;48.858;9.184;2023-08-01T06:34:24;17.60;99.90
9219;DHT22;4644;48.858;9.184;2023-08-01T06:36:51;17.10;99.90
9219;DHT22;4644;48.858;9.184;2023-08-01T06:39:19;16.80;99.90
9219;DHT22;4644;48.858;9.184;2023-08-01T06:41:46;16.50;99.90
9219;DHT22;4644;48.858;9.184;2023-08-01T06:44:13;16.30;99.90
9219;DHT22;4644;48.858;9.184;2023-08-01T06:46:40;16.20;99.90
9219;DHT22;4644;48.858;9.184;2023-08-01T06:49:08;16.10;99.90
9219;DHT22;4644;48.858;9.184;2023-08-01T06:51:36;16.00;99.90
9219;DHT22;4644;48.858;9.184;2023-08-01T06:54:03;16.00;99.90
9219;DHT22;4644;48.858;9.184;2023-08-01T06:56:30;16.00;99.90
9219;DHT22;4644;48.858;9.184;2023-08-01T06:58:57;15.90;99.90
9219;DHT22;4644;48.858;9.184;2023-08-01T07:01:25;15.90;99.90
9219;DHT22;4644;48.858;9.184;2023-08-01T07:03:52;15.90;99.90
9219;DHT22;4644;48.858;9.184;2023-08-01T07:06:19;15.90;99.90
9219;DHT22;4644;48.858;9.184;2023-08-01T07:08:48;15.90;99.90
9219;DHT22;4644;48.858;9.184;2023-08-01T07:11:15;16.00;99.90
9219;DHT22;4644;48.858;9.184;2023-08-01T07:13:42;16.00;99.90
9219;DHT22;4644;48.858;9.184;2023-08-01T07:16:09;16.10;99.90
9219;DHT22;4644;48.858;9.184;2023-08-01T07:18:36;16.10;99.90
9219;DHT22;4644;48.858;9.184;2023-08-01T07:21:04;16.10;99.90
9219;DHT22;4644;48.858;9.184;2023-08-01T07:23:34;16.00;99.90
9219;DHT22;4644;48.858;9.184;2023-08-01T07:26:03;16.00;99.90
9219;DHT22;4644;48.858;9.184;2023-08-01T07:28:30;16.00;99.90
9219;DHT22;4644;48.858;9.184;2023-08-01T07:31:01;16.10;99.90
9219;DHT22;4644;48.858;9.184;2023-08-01T07:33:28;15.90;99.90
9219;DHT22;4644;48.858;9.184;2023-08-01T07:35:55;15.90;99.90
9219;DHT22;4644;48.858;9.184;2023-08-01T07:38:22;15.70;99.90
9219;DHT22;4644;48.858;9.184;2023-08-01T07:40:50;15.70;99.90
9219;DHT22;4644;48.858;9.184;2023-08-01T07:43:19;15.60;99.90
9219;DHT22;4644;48.858;9.184;2023-08-01T07:45:46;15.60;99.90
9219;DHT22;4644;48.858;9.184;2023-08-01T07:48:16;15.60;99.90
9219;DHT22;4644;48.858;9.184;2023-08-01T07:50:43;15.60;99.90
9219;DHT22;4644;48.858;9.184;2023-08-01T07:53:10;15.60;99.90
9219;DHT22;4644;48.858;9.184;2023-08-01T07:55:37;15.60;99.90
9219;DHT22;4644;48.858;9.184;2023-08-01T07:58:05;15.70;99.90
9219;DHT22;4644;48.858;9.184;2023-08-01T08:00:34;15.70;99.90
9219;DHT22;4644;48.858;9.184;2023-08-01T08:03:01;15.80;99.90
9219;DHT22;4644;48.858;9.184;2023-08-01T08:05:29;15.90;99.90
9219;DHT22;4644;48.858;9.184;2023-08-01T08:07:56;15.90;99.90
9219;DHT22;4644;48.858;9.184;2023-08-01T08:10:23;16.00;99.90
9219;DHT22;4644;48.858;9.184;2023-08-01T08:12:50;16.00;99.90
9219;DHT22;4644;48.858;9.184;2023-08-01T08:15:17;16.10;99.90
9219;DHT22;4644;48.858;9.184;2023-08-01T08:17:47;16.20;99.90
9219;DHT22;4644;48.858;9.184;2023-08-01T08:20:14;16.10;99.90
9219;DHT22;4644;48.858;9.184;2023-08-01T08:22:41;16.10;99.90
9219;DHT22;4644;48.858;9.184;2023-08-01T08:25:08;16.10;99.90
9219;DHT22;4644;48.858;9.184;2023-08-01T08:27:36;16.10;99.90
9219;DHT22;4644;48.858;9.184;2023-08-01T08:30:04;16.20;99.90
9219;DHT22;4644;48.858;9.184;2023-08-01T08:32:31;16.20;99.90
9219;DHT22;4644;48.858;9.184;2023-08-01T08:35:00;16.20;99.90
9219;DHT22;4644;48.858;9.184;2023-08-01T08:37:27;16.20;99.90
9219;DHT22;4644;48.858;9.184;2023-08-01T08:39:54;16.30;99.90
9219;DHT22;4644;48.858;9.184;2023-08-01T08:42:21;16.30;99.90
9219;DHT22;4644;48.858;9.184;2023-08-01T08:44:50;16.40;99.90
9219;DHT22;4644;48.858;9.184;2023-08-01T08:47:24;16.40;99.90
9219;DHT22;4644;48.858;9.184;2023-08-01T08:49:52;16.60;99.90
9219;DHT22;4644;48.858;9.184;2023-08-01T08:52:23;16.60;99.90
9219;DHT22;4644;48.858;9.184;2023-08-01T08:54:51;16.70;99.90
9219;DHT22;4644;48.858;9.184;2023-08-01T08:57:19;16.80;99.90
9219;DHT22;4644;48.858;9.184;2023-08-01T08:59:47;16.80;99.90
9219;DHT22;4644;48.858;9.184;2023-08-01T09:02:15;16.90;99.90
9219;DHT22;4644;48.858;9.184;2023-08-01T09:04:42;16.90;99.90
9219;DHT22;4644;48.858;9.184;2023-08-01T09:07:10;17.00;99.90
9219;DHT22;4644;48.858;9.184;2023-08-01T09:09:41;16.90;99.90
9219;DHT22;4644;48.858;9.184;2023-08-01T09:12:09;16.90;99.90
9219;DHT22;4644;48.858;9.184;2023-08-01T09:14:36;16.90;99.90
9219;DHT22;4644;48.858;9.184;2023-08-01T09:17:07;16.90;99.90
9219;DHT22;4644;48.858;9.184;2023-08-01T09:19:35;16.90;99.90
9219;DHT22;4644;48.858;9.184;2023-08-01T09:22:09;16.80;99.90
9219;DHT22;4644;48.858;9.184;2023-08-01T09:24:36;16.90;99.90
9219;DHT22;4644;48.858;9.184;2023-08-01T09:27:06;16.80;99.90
9219;DHT22;4644;48.858;9.184;2023-08-01T09:29:34;16.90;99.90
9219;DHT22;4644;48.858;9.184;2023-08-01T09:32:11;16.90;99.90
9219;DHT22;4644;48.858;9.184;2023-08-01T09:34:40;16.90;99.90
9219;DHT22;4644;48.858;9.184;2023-08-01T09:37:07;16.90;99.90
9219;DHT22;4644;48.858;9.184;2023-08-01T09:39:35;16.90;99.90
9219;DHT22;4644;48.858;9.184;2023-08-01T09:42:05;16.90;99.90
9219;DHT22;4644;48.858;9.184;2023-08-01T09:44:35;16.80;99.90
9219;DHT22;4644;48.858;9.184;2023-08-01T09:47:04;16.90;99.90
9219;DHT22;4644;48.858;9.184;2023-08-01T09:49:32;17.00;99.90
9219;DHT22;4644;48.858;9.184;2023-08-01T09:52:00;17.10;99.90
9219;DHT22;4644;48.858;9.184;2023-08-01T09:54:28;17.10;99.90
9219;DHT22;4644;48.858;9.184;2023-08-01T09:56:55;17.10;99.90
9219;DHT22;4644;48.858;9.184;2023-08-01T09:59:25;17.10;99.90
9219;DHT22;4644;48.858;9.184;2023-08-01T10:01:54;17.20;99.90
9219;DHT22;4644;48.858;9.184;2023-08-01T10:04:24;17.10;99.90
9219;DHT22;4644;48.858;9.184;2023-08-01T10:06:54;17.20;99.90
9219;DHT22;4644;48.858;9.184;2023-08-01T10:09:24;17.20;99.90
9219;DHT22;4644;48.858;9.184;2023-08-01T10:11:52;17.30;99.90
9219;DHT22;4644;48.858;9.184;2023-08-01T10:14:20;17.30;99.90
9219;DHT22;4644;48.858;9.184;2023-08-01T10:16:49;17.30;99.90
9219;DHT22;4644;48.858;9.184;2023-08-01T10:19:17;17.40;99.90
9219;DHT22;4644;48.858;9.184;2023-08-01T10:21:47;17.40;99.90
9219;DHT22;4644;48.858;9.184;2023-08-01T10:24:15;17.50;99.90
9219;DHT22;4644;48.858;9.184;2023-08-01T10:26:45;17.40;99.90
9219;DHT22;4644;48.858;9.184;2023-08-01T10:29:12;17.50;99.90
9219;DHT22;4644;48.858;9.184;2023-08-01T10:31:39;17.40;99.90
9219;DHT22;4644;48.858;9.184;2023-08-01T10:34:19;17.40;99.90
9219;DHT22;4644;48.858;9.184;2023-08-01T10:36:54;17.30;99.90
9219;DHT22;4644;48.858;9.184;2023-08-01T10:39:22;17.30;99.90
9219;DHT22;4644;48.858;9.184;2023-08-01T10:41:57;17.40;99.90
9219;DHT22;4644;48.858;9.184;2023-08-01T10:44:25;17.70;99.90
9219;DHT22;4644;48.858;9.184;2023-08-01T10:46:53;17.90;99.90
9219;DHT22;4644;48.858;9.184;2023-08-01T10:49:35;18.00;99.90
9219;DHT22;4644;48.858;9.184;2023-08-01T10:52:03;18.20;99.90
9219;DHT22;4644;48.858;9.184;2023-08-01T10:54:32;18.40;99.90
9219;DHT22;4644;48.858;9.184;2023-08-01T10:57:04;18.50;99.90
9219;DHT22;4644;48.858;9.184;2023-08-01T10:59:32;18.60;99.90
9219;DHT22;4644;48.858;9.184;2023-08-01T11:02:01;18.60;99.90
9219;DHT22;4644;48.858;9.184;2023-08-01T11:04:29;18.40;99.90
9219;DHT22;4644;48.858;9.184;2023-08-01T11:06:56;18.30;99.90
9219;DHT22;4644;48.858;9.184;2023-08-01T11:09:25;18.20;99.90
9219;DHT22;4644;48.858;9.184;2023-08-01T11:11:53;18.30;99.90
9219;DHT22;4644;48.858;9.184;2023-08-01T11:14:21;18.30;99.90
9219;DHT22;4644;48.858;9.184;2023-08-01T11:16:49;18.30;99.90
9219;DHT22;4644;48.858;9.184;2023-08-01T11:19:22;18.50;99.90
9219;DHT22;4644;48.858;9.184;2023-08-01T11:21:51;18.90;99.90
9219;DHT22;4644;48.858;9.184;2023-08-01T11:24:20;19.30;99.90
9219;DHT22;4644;48.858;9.184;2023-08-01T11:26:49;19.60;99.90
9219;DHT22;4644;48.858;9.184;2023-08-01T11:29:17;19.80;99.90
9219;DHT22;4644;48.858;9.184;2023-08-01T11:31:53;20.10;99.90
9219;DHT22;4644;48.858;9.184;2023-08-01T11:34:22;20.40;99.90
9219;DHT22;4644;48.858;9.184;2023-08-01T11:36:51;20.50;99.90
9219;DHT22;4644;48.858;9.184;2023-08-01T11:39:19;20.60;99.90
9219;DHT22;4644;48.858;9.184;2023-08-01T11:41:47;20.50;99.90
9219;DHT22;4644;48.858;9.184;2023-08-01T11:44:14;20.50;99.90
9219;DHT22;4644;48.858;9.184;2023-08-01T11:46:41;20.40;99.90
9219;DHT22;4644;48.858;9.184;2023-08-01T11:49:13;20.50;99.90
9219;DHT22;4644;48.858;9.184;2023-08-01T11:51:40;20.70;99.90
9219;DHT22;4644;48.858;9.184;2023-08-01T11:54:09;20.80;99.90
9219;DHT22;4644;48.858;9.184;2023-08-01T11:56:36;20.80;99.90
9219;DHT22;4644;48.858;9.184;2023-08-01T11:59:10;20.90;99.90
9219;DHT22;4644;48.858;9.184;2023-08-01T12:01:40;21.00;99.90
9219;DHT22;4644;48.858;9.184;2023-08-01T12:04:07;21.10;99.90
9219;DHT22;4644;48.858;9.184;2023-08-01T12:06:34;21.10;99.90
9219;DHT22;4644;48.858;9.184;2023-08-01T12:09:09;21.10;99.90
9219;DHT22;4644;48.858;9.184;2023-08-01T12:11:36;20.90;99.90
9219;DHT22;4644;48.858;9.184;2023-08-01T12:14:03;20.80;99.90
9219;DHT22;4644;48.858;9.184;2023-08-01T12:16:31;20.80;99.90
9219;DHT22;4644;48.858;9.184;2023-08-01T12:18:58;20.90;99.90
9219;DHT22;4644;48.858;9.184;2023-08-01T12:21:24;21.00;99.90
9219;DHT22;4644;48.858;9.184;2023-08-01T12:23:51;21.00;99.90
9219;DHT22;4644;48.858;9.184;2023-08-01T12:26:20;21.00;99.90
9219;DHT22;4644;48.858;9.184;2023-08-01T12:28:47;21.10;99.90
9219;DHT22;4644;48.858;9.184;2023-08-01T12:31:17;21.10;99.90
9219;DHT22;4644;48.858;9.184;2023-08-01T12:33:44;21.30;99.90
9219;DHT22;4644;48.858;9.184;2023-08-01T12:36:11;21.40;99.90
9219;DHT22;4644;48.858;9.184;2023-08-01T12:38:38;21.30;99.90
9219;DHT22;4644;48.858;9.184;2023-08-01T12:41:05;21.40;99.90
9219;DHT22;4644;48.858;9.184;2023-08-01T12:43:34;21.50;99.90
9219;DHT22;4644;48.858;9.184;2023-08-01T12:46:01;21.50;99.90
9219;DHT22;4644;48.858;9.184;2023-08-01T12:48:28;21.70;99.90
9219;DHT22;4644;48.858;9.184;2023-08-01T12:50:56;21.70;99.90
9219;DHT22;4644;48.858;9.184;2023-08-01T12:53:23;21.50;99.90
9219;DHT22;4644;48.858;9.184;2023-08-01T12:55:51;21.50;99.90
9219;DHT22;4644;48.858;9.184;2023-08-01T12:58:18;21.50;99.90
9219;DHT22;4644;48.858;9.184;2023-08-01T13:00:47;21.50;99.90
9219;DHT22;4644;48.858;9.184;2023-08-01T13:03:14;21.50;99.90
9219;DHT22;4644;48.858;9.184;2023-08-01T13:05:42;21.60;99.90
9219;DHT22;4644;48.858;9.184;2023-08-01T13:08:10;21.50;99.90
9219;DHT22;4644;48.858;9.184;2023-08-01T13:10:38;21.40;99.90
9219;DHT22;4644;48.858;9.184;2023-08-01T13:13:08;21.40;99.90
9219;DHT22;4644;48.858;9.184;2023-08-01T13:15:36;21.40;99.90
9219;DHT22;4644;48.858;9.184;2023-08-01T13:18:04;21.40;99.90
9219;DHT22;4644;48.858;9.184;2023-08-01T13:20:32;21.60;99.90
9219;DHT22;4644;48.858;9.184;2023-08-01T13:22:59;21.60;99.90
9219;DHT22;4644;48.858;9.184;2023-08-01T13:25:26;21.70;99.90
9219;DHT22;4644;48.858;9.184;2023-08-01T13:27:53;21.70;99.90
9219;DHT22;4644;48.858;9.184;2023-08-01T13:30:20;21.70;99.90
9219;DHT22;4644;48.858;9.184;2023-08-01T13:32:47;21.70;99.90
9219;DHT22;4644;48.858;9.184;2023-08-01T13:35:16;21.70;99.40
9219;DHT22;4644;48.858;9.184;2023-08-01T13:37:43;21.90;99.40
9219;DHT22;4644;48.858;9.184;2023-08-01T13:40:11;22.00;99.40
9219;DHT22;4644;48.858;9.184;2023-08-01T13:42:40;22.20;99.60
9219;DHT22;4644;48.858;9.184;2023-08-01T13:45:07;22.30;99.90
9219;DHT22;4644;48.858;9.184;2023-08-01T13:47:34;22.20;99.30
9219;DHT22;4644;48.858;9.184;2023-08-01T13:50:02;22.20;98.50
9219;DHT22;4644;48.858;9.184;2023-08-01T13:52:30;22.10;99.10
9219;DHT22;4644;48.858;9.184;2023-08-01T13:54:57;22.10;99.90
9219;DHT22;4644;48.858;9.184;2023-08-01T13:57:25;22.20;97.90
9219;DHT22;4644;48.858;9.184;2023-08-01T13:59:52;22.20;98.80
9219;DHT22;4644;48.858;9.184;2023-08-01T14:02:19;22.30;98.70
9219;DHT22;4644;48.858;9.184;2023-08-01T14:04:46;22.50;98.80
9219;DHT22;4644;48.858;9.184;2023-08-01T14:07:14;22.60;96.70
9219;DHT22;4644;48.858;9.184;2023-08-01T14:09:43;22.40;98.30
9219;DHT22;4644;48.858;9.184;2023-08-01T14:12:10;22.20;97.90
9219;DHT22;4644;48.858;9.184;2023-08-01T14:14:37;22.10;97.50
9219;DHT22;4644;48.858;9.184;2023-08-01T14:17:04;22.10;98.10
9219;DHT22;4644;48.858;9.184;2023-08-01T14:19:31;22.10;97.90
9219;DHT22;4644;48.858;9.184;2023-08-01T14:21:58;22.00;98.70
9219;DHT22;4644;48.858;9.184;2023-08-01T14:24:25;22.10;99.60
9219;DHT22;4644;48.858;9.184;2023-08-01T14:26:53;22.20;99.70
9219;DHT22;4644;48.858;9.184;2023-08-01T14:29:20;22.30;98.40
9219;DHT22;4644;48.858;9.184;2023-08-01T14:31:48;22.40;98.90
9219;DHT22;4644;48.858;9.184;2023-08-01T14:34:15;22.50;98.10
9219;DHT22;4644;48.858;9.184;2023-08-01T14:36:42;22.50;97.40
9219;DHT22;4644;48.858;9.184;2023-08-01T14:39:09;22.60;96.90
9219;DHT22;4644;48.858;9.184;2023-08-01T14:41:36;22.80;99.40
9219;DHT22;4644;48.858;9.184;2023-08-01T14:44:04;23.00;96.90
9219;DHT22;4644;48.858;9.184;2023-08-01T14:46:31;23.00;96.90
9219;DHT22;4644;48.858;9.184;2023-08-01T14:48:58;23.10;95.80
9219;DHT22;4644;48.858;9.184;2023-08-01T14:51:25;23.10;95.40
9219;DHT22;4644;48.858;9.184;2023-08-01T14:53:52;23.20;94.20
9219;DHT22;4644;48.858;9.184;2023-08-01T14:56:19;23.30;94.50
9219;DHT22;4644;48.858;9.184;2023-08-01T14:58:46;23.30;94.80
9219;DHT22;4644;48.858;9.184;2023-08-01T15:01:15;23.30;92.40
9219;DHT22;4644;48.858;9.184;2023-08-01T15:03:44;23.10;92.20
9219;DHT22;4644;48.858;9.184;2023-08-01T15:06:11;23.10;94.40
9219;DHT22;4644;48.858;9.184;2023-08-01T15:08:40;23.00;93.40
9219;DHT22;4644;48.858;9.184;2023-08-01T15:11:07;22.90;93.20
9219;DHT22;4644;48.858;9.184;2023-08-01T15:13:35;22.90;93.60
9219;DHT22;4644;48.858;9.184;2023-08-01T15:16:02;22.90;96.00
9219;DHT22;4644;48.858;9.184;2023-08-01T15:18:30;22.80;95.10
9219;DHT22;4644;48.858;9.184;2023-08-01T15:20:57;22.90;95.70
9219;DHT22;4644;48.858;9.184;2023-08-01T15:23:24;22.80;94.10
9219;DHT22;4644;48.858;9.184;2023-08-01T15:25:51;22.80;92.80
9219;DHT22;4644;48.858;9.184;2023-08-01T15:28:18;22.80;92.70
9219;DHT22;4644;48.858;9.184;2023-08-01T15:30:45;22.80;93.30
9219;DHT22;4644;48.858;9.184;2023-08-01T15:33:12;22.80;94.20
9219;DHT22;4644;48.858;9.184;2023-08-01T15:35:42;22.80;94.00
9219;DHT22;4644;48.858;9.184;2023-08-01T15:38:09;22.90;94.20
9219;DHT22;4644;48.858;9.184;2023-08-01T15:40:36;22.80;93.20
9219;DHT22;4644;48.858;9.184;2023-08-01T15:43:03;22.80;93.60
9219;DHT22;4644;48.858;9.184;2023-08-01T15:45:30;22.70;94.10
9219;DHT22;4644;48.858;9.184;2023-08-01T15:47:56;22.80;93.20
9219;DHT22;4644;48.858;9.184;2023-08-01T15:50:24;22.80;93.10
9219;DHT22;4644;48.858;9.184;2023-08-01T15:52:52;22.80;93.00
9219;DHT22;4644;48.858;9.184;2023-08-01T15:55:19;22.80;92.00
9219;DHT22;4644;48.858;9.184;2023-08-01T15:57:46;22.80;93.40
9219;DHT22;4644;48.858;9.184;2023-08-01T16:00:15;22.80;92.80
9219;DHT22;4644;48.858;9.184;2023-08-01T16:02:42;22.90;94.60
9219;DHT22;4644;48.858;9.184;2023-08-01T16:05:09;23.20;94.80
9219;DHT22;4644;48.858;9.184;2023-08-01T16:07:36;23.50;93.30